Time;durP1;ratioP1;P1;durP2;ratioP2;P2;SDS_P1;SDS_P2;PMS_P1;PMS_P2;Temp;Humidity;BMP_temperature;BMP_pressure;BME280_temperature;BME280_humidity;BME280_pressure;Samples;Min_cycle;Max_cycle;Signal;HPM_P1;HPM_P2
2021/04/27 00:02:44;;;;;;;23.75;10.38;;;;;;;0.54;53.24;100308.14;147789;1147;104562;-74
2021/04/27 00:05:47;;;;;;;24.65;10.98;;;;;;;0.57;52.91;100310.61;147643;1148;104486;-74
2021/04/27 00:08:51;;;;;;;20.30;10.50;;;;;;;0.56;53.13;100312.39;147765;1147;104572;-76
2021/04/27 00:11:54;;;;;;;22.43;11.53;;;;;;;0.53;53.13;100307.30;147764;1147;104572;-72
2021/04/27 00:14:57;;;;;;;23.27;11.28;;;;;;;0.55;53.26;100307.22;147742;1147;104589;-72
2021/04/27 00:18:01;;;;;;;24.70;11.30;;;;;;;0.53;53.28;100309.09;147792;1148;104529;-78
2021/04/27 00:21:04;;;;;;;23.47;11.03;;;;;;;0.52;53.02;100305.63;147758;1147;104575;-73
2021/04/27 00:24:09;;;;;;;20.20;10.18;;;;;;;0.48;53.50;100303.25;147671;1147;104495;-74
2021/04/27 00:27:15;;;;;;;21.55;10.85;;;;;;;0.43;53.21;100305.31;147784;1148;104565;-72
2021/04/27 00:30:20;;;;;;;23.83;10.50;;;;;;;0.33;53.37;100299.73;147435;1147;104564;-75
2021/04/27 00:33:24;;;;;;;26.50;12.53;;;;;;;0.33;53.42;100299.73;147388;1147;104515;-71
2021/04/27 00:36:28;;;;;;;24.23;11.70;;;;;;;0.32;53.71;100309.36;147769;1147;104482;-72
2021/04/27 00:39:31;;;;;;;20.17;10.35;;;;;;;0.34;53.31;100297.00;147730;1147;104451;-73
2021/04/27 00:42:39;;;;;;;25.20;11.47;;;;;;;0.34;52.68;100302.25;147372;1147;104481;-74
2021/04/27 00:45:42;;;;;;;25.23;11.10;;;;;;;0.34;52.74;100301.41;147259;1147;104532;-70
2021/04/27 00:48:45;;;;;;;27.73;12.40;;;;;;;0.35;52.82;100300.50;147778;1147;104592;-74
2021/04/27 00:51:49;;;;;;;27.30;12.17;;;;;;;0.31;53.43;100297.19;147732;1148;104607;-72
2021/04/27 00:54:52;;;;;;;23.32;10.68;;;;;;;0.30;53.53;100292.86;147749;1147;104572;-71
2021/04/27 00:57:55;;;;;;;26.50;12.07;;;;;;;0.35;53.76;100293.45;147733;1147;104578;-71
2021/04/27 01:00:59;;;;;;;25.43;11.80;;;;;;;0.36;53.30;100292.51;147343;1148;104574;-71
2021/04/27 01:04:04;;;;;;;26.20;12.58;;;;;;;0.34;53.37;100291.75;147665;1147;104582;-74
2021/04/27 01:07:08;;;;;;;23.27;11.08;;;;;;;0.32;53.13;100288.37;147720;1147;104481;-76
2021/04/27 01:10:14;;;;;;;25.90;11.40;;;;;;;0.26;54.02;100280.84;147347;1148;104567;-73
2021/04/27 01:13:25;;;;;;;30.10;12.40;;;;;;;0.27;53.08;100285.18;147764;1148;104486;-75
2021/04/27 01:16:30;;;;;;;23.80;11.50;;;;;;;0.25;53.62;100287.05;147350;1147;104511;-75
2021/04/27 01:19:41;;;;;;;27.50;12.90;;;;;;;0.24;53.79;100284.50;147384;1147;104679;-72
2021/04/27 01:23:02;;;;;;;25.40;11.97;;;;;;;0.22;53.76;100283.74;146995;1147;104547;-73
2021/04/27 01:26:08;;;;;;;26.47;11.23;;;;;;;0.12;53.84;100279.01;147229;1147;104490;-74
2021/04/27 01:29:21;;;;;;;27.30;13.08;;;;;;;0.11;53.44;100282.55;147267;1147;104570;-76
2021/04/27 01:32:24;;;;;;;27.10;12.37;;;;;;;0.10;53.16;100293.16;147077;1147;104543;-74
2021/04/27 01:35:30;;;;;;;26.50;11.60;;;;;;;0.06;53.38;100291.60;147311;1147;104572;-75
2021/04/27 01:38:38;;;;;;;25.95;12.30;;;;;;;0.02;54.10;100292.70;147207;1147;104572;-73
2021/04/27 01:41:42;;;;;;;23.83;12.47;;;;;;;-0.13;53.69;100292.63;147299;1147;104515;-73
2021/04/27 01:44:46;;;;;;;29.42;12.98;;;;;;;-0.23;53.75;100294.08;147221;1147;104463;-73
2021/04/27 01:47:49;;;;;;;28.95;13.03;;;;;;;-0.26;53.47;100288.98;147396;1147;104739;-73
2021/04/27 01:50:54;;;;;;;28.17;13.10;;;;;;;-0.26;54.21;100292.45;147210;1148;104560;-73
2021/04/27 01:54:16;;;;;;;29.87;13.60;;;;;;;-0.24;53.18;100287.13;147619;1147;104483;-71
2021/04/27 01:57:20;;;;;;;26.63;11.83;;;;;;;-0.30;53.30;100280.44;147213;1147;104864;-75
2021/04/27 02:00:25;;;;;;;27.77;13.27;;;;;;;-0.30;53.64;100288.30;146972;1147;104571;-73
2021/04/27 02:03:29;;;;;;;27.90;13.90;;;;;;;-0.30;52.96;100285.68;147255;1147;104575;-75
2021/04/27 02:06:53;;;;;;;27.27;12.43;;;;;;;-0.32;54.16;100289.33;146878;1147;104658;-76
2021/04/27 02:09:57;;;;;;;30.20;14.00;;;;;;;-0.38;53.46;100281.80;147321;1147;104565;-78
2021/04/27 02:13:07;;;;;;;27.05;13.03;;;;;;;-0.40;53.65;100274.01;147728;1147;104809;-76
2021/04/27 02:16:13;;;;;;;27.58;11.68;;;;;;;-0.48;52.90;100282.28;147346;1147;104572;-71
2021/04/27 02:19:24;;;;;;;28.87;12.27;;;;;;;-0.50;53.66;100284.14;147727;1148;104553;-71
2021/04/27 02:22:32;;;;;;;28.80;12.03;;;;;;;-0.49;53.22;100282.36;147401;1148;104633;-72
2021/04/27 02:26:00;;;;;;;21.77;10.73;;;;;;;-0.51;53.28;100276.36;147480;1147;104684;-73
2021/04/27 02:29:09;;;;;;;24.13;12.53;;;;;;;-0.57;53.43;100274.91;147035;1148;104898;-74
2021/04/27 02:32:13;;;;;;;26.62;12.43;;;;;;;-0.59;54.36;100274.14;146937;1148;104645;-75
2021/04/27 02:35:21;;;;;;;23.02;11.57;;;;;;;-0.56;54.50;100271.34;147343;1148;104556;-73
2021/04/27 02:38:25;;;;;;;26.42;13.22;;;;;;;-0.57;54.38;100269.66;147825;1147;104674;-74
2021/04/27 02:41:32;;;;;;;25.05;11.50;;;;;;;-0.61;53.67;100270.76;147681;1147;104597;-72
2021/04/27 02:44:39;;;;;;;20.57;10.90;;;;;;;-0.68;52.84;100269.38;147397;1147;104834;-74
2021/04/27 02:47:43;;;;;;;22.70;11.38;;;;;;;-0.80;53.99;100266.47;147323;1148;104895;-73
2021/04/27 02:50:50;;;;;;;22.30;10.55;;;;;;;-0.80;53.45;100271.72;147502;1147;104812;-71
2021/04/27 02:53:53;;;;;;;22.22;10.75;;;;;;;-0.82;54.51;100278.81;147655;1145;104566;-71
2021/04/27 02:56:57;;;;;;;27.50;11.88;;;;;;;-0.82;53.42;100281.42;147297;1147;104507;-74
2021/04/27 03:00:10;;;;;;;20.48;9.78;;;;;;;-0.77;54.49;100270.73;147401;1147;104518;-70
2021/04/27 03:03:19;;;;;;;20.72;9.85;;;;;;;-0.80;54.58;100266.47;147849;1147;104500;-74
2021/04/27 03:06:22;;;;;;;23.07;11.73;;;;;;;-0.77;53.26;100281.20;147389;1147;104546;-72
2021/04/27 03:09:55;;;;;;;22.87;10.30;;;;;;;-0.77;53.30;100288.20;147730;1146;104566;-70
2021/04/27 03:12:59;;;;;;;21.68;9.95;;;;;;;-0.79;53.63;100285.66;147258;1147;104620;-72
2021/04/27 03:16:04;;;;;;;25.65;12.10;;;;;;;-0.81;54.03;100282.27;147349;1147;104977;-72
2021/04/27 03:19:07;;;;;;;19.47;11.07;;;;;;;-0.84;54.13;100282.45;147422;1147;104570;-72
2021/04/27 03:22:17;;;;;;;19.17;10.00;;;;;;;-0.82;53.74;100289.28;147374;1147;104610;-72
2021/04/27 03:25:21;;;;;;;22.15;11.30;;;;;;;-0.90;54.11;100286.23;147384;1146;104572;-71
2021/04/27 03:28:28;;;;;;;21.25;10.25;;;;;;;-0.88;54.67;100279.13;147416;1148;104495;-74
2021/04/27 03:31:38;;;;;;;18.93;8.90;;;;;;;-0.95;54.76;100280.36;147249;1147;104484;-72
2021/04/27 03:34:41;;;;;;;21.20;11.45;;;;;;;-0.93;53.14;100283.75;147228;1147;104665;-71
2021/04/27 03:37:45;;;;;;;18.98;10.18;;;;;;;-0.88;53.78;100288.77;147622;1147;104611;-71
2021/04/27 03:40:48;;;;;;;20.50;9.53;;;;;;;-0.83;53.36;100290.23;147217;1147;104666;-74
2021/04/27 03:43:55;;;;;;;24.13;10.53;;;;;;;-0.81;53.68;100290.12;147732;1148;104478;-74
2021/04/27 03:46:58;;;;;;;20.52;10.32;;;;;;;-0.72;54.70;100289.65;147071;1148;104971;-71
2021/04/27 03:50:02;;;;;;;19.00;9.98;;;;;;;-0.66;53.77;100285.86;147258;1145;104492;-73
2021/04/27 03:53:08;;;;;;;19.70;9.38;;;;;;;-0.56;53.57;100289.69;147723;1147;104572;-72
2021/04/27 03:56:11;;;;;;;19.80;9.83;;;;;;;-0.45;54.49;100282.09;147280;1146;104575;-72
2021/04/27 03:59:15;;;;;;;20.40;10.10;;;;;;;-0.31;54.63;100283.13;147267;1147;104473;-71
2021/04/27 04:02:19;;;;;;;21.30;10.90;;;;;;;-0.09;54.40;100285.45;147606;1147;104576;-73
2021/04/27 04:05:22;;;;;;;18.70;10.43;;;;;;;0.10;53.77;100287.91;147718;1147;104954;-74
2021/04/27 04:08:27;;;;;;;21.80;11.17;;;;;;;0.23;54.85;100290.67;147348;1148;104636;-72
2021/04/27 04:11:33;;;;;;;21.73;10.20;;;;;;;0.31;54.33;100286.70;147543;1147;104582;-72
2021/04/27 04:14:37;;;;;;;20.50;10.53;;;;;;;0.39;53.97;100289.72;147246;1147;104453;-73
2021/04/27 04:17:46;;;;;;;22.83;11.23;;;;;;;0.47;54.57;100283.20;147648;1147;104570;-77
2021/04/27 04:20:50;;;;;;;16.05;9.93;;;;;;;0.61;54.33;100283.23;147473;1147;104572;-73
2021/04/27 04:24:23;;;;;;;22.93;11.03;;;;;;;0.85;54.24;100285.36;147504;1147;104580;-72
2021/04/27 04:27:26;;;;;;;18.02;10.18;;;;;;;1.03;54.37;100284.28;147477;1147;104451;-69
2021/04/27 04:30:41;;;;;;;24.12;12.25;;;;;;;1.26;54.85;100289.95;147251;1148;104570;-72
2021/04/27 04:34:17;;;;;;;16.77;10.23;;;;;;;1.59;54.58;100291.45;147027;1147;104601;-71
2021/04/27 04:37:38;;;;;;;;;;;;;;;1.93;55.16;100296.30;147748;1147;104685;-72
2021/04/27 04:41:09;;;;;;;17.83;11.10;;;;;;;2.24;54.60;100291.71;147589;1147;104835;-71
2021/04/27 04:44:35;;;;;;;22.70;11.87;;;;;;;2.52;54.08;100293.41;147613;1148;104497;-71
2021/04/27 04:47:57;;;;;;;21.83;11.60;;;;;;;2.81;54.05;100297.67;147545;1147;104516;-71
2021/04/27 04:51:18;;;;;;;;;;;;;;;3.04;54.03;100294.36;147774;1145;104578;-71
2021/04/27 04:54:36;;;;;;;17.50;10.65;;;;;;;3.26;54.75;100303.44;147414;1147;104607;-74
2021/04/27 04:57:41;;;;;;;19.53;12.33;;;;;;;3.47;54.62;100295.84;147249;1147;104518;-73
2021/04/27 05:00:44;;;;;;;17.57;11.65;;;;;;;3.70;55.82;100299.52;147256;1147;104572;-72
2021/04/27 05:04:05;;;;;;;18.95;11.97;;;;;;;3.89;55.43;100294.61;147309;1147;104481;-74
2021/04/27 05:07:32;;;;;;;18.85;11.60;;;;;;;4.09;55.55;100294.98;147483;1147;104614;-74
2021/04/27 05:10:54;;;;;;;22.20;12.80;;;;;;;4.29;54.88;100294.39;147619;1146;104571;-72
2021/04/27 05:14:05;;;;;;;21.05;13.08;;;;;;;4.47;55.83;100291.36;147397;1148;104611;-71
2021/04/27 05:17:10;;;;;;;21.73;13.08;;;;;;;4.57;55.65;100302.92;147573;1147;104576;-73
2021/04/27 05:20:14;;;;;;;20.73;13.40;;;;;;;4.69;55.59;100301.16;147781;1147;104657;-72
2021/04/27 05:23:23;;;;;;;19.48;12.47;;;;;;;4.85;55.71;100300.85;147740;1147;104569;-71
2021/04/27 05:26:27;;;;;;;17.55;11.95;;;;;;;4.97;55.62;100305.23;147771;1147;104483;-72
2021/04/27 05:29:30;;;;;;;19.82;11.68;;;;;;;5.05;55.89;100302.84;147716;1147;104560;-72
2021/04/27 05:32:34;;;;;;;19.37;11.40;;;;;;;5.14;55.68;100300.45;147337;1147;104499;-71
2021/04/27 05:35:37;;;;;;;19.15;12.70;;;;;;;5.23;55.33;100310.34;147242;1146;104617;-72
2021/04/27 05:38:40;;;;;;;17.87;11.50;;;;;;;5.31;55.42;100303.52;147263;1147;104473;-72
2021/04/27 05:41:43;;;;;;;17.20;11.67;;;;;;;5.32;55.24;100309.64;147566;1147;104499;-76
2021/04/27 05:44:47;;;;;;;18.57;12.05;;;;;;;5.35;55.69;100309.42;147766;1147;104639;-72
2021/04/27 05:47:50;;;;;;;17.37;11.73;;;;;;;5.38;55.00;100314.45;147784;1147;104537;-72
2021/04/27 05:50:53;;;;;;;18.45;11.75;;;;;;;5.43;55.06;100316.77;147534;1147;104528;-73
2021/04/27 05:53:56;;;;;;;21.20;12.53;;;;;;;5.41;55.36;100316.01;147220;1148;104574;-72
2021/04/27 05:57:00;;;;;;;18.42;12.00;;;;;;;5.36;55.24;100313.73;147219;1147;104974;-72
2021/04/27 06:00:07;;;;;;;20.70;13.35;;;;;;;5.36;55.42;100311.08;147352;1147;104652;-72
2021/04/27 06:03:16;;;;;;;22.52;13.70;;;;;;;5.37;55.57;100314.56;147731;1148;104614;-72
2021/04/27 06:06:19;;;;;;;22.87;13.07;;;;;;;5.37;55.37;100318.08;147767;1145;104486;-72
2021/04/27 06:09:22;;;;;;;22.52;13.43;;;;;;;5.36;55.36;100316.38;147437;1147;104576;-71
2021/04/27 06:12:25;;;;;;;26.75;13.75;;;;;;;5.38;55.22;100324.20;147287;1147;104572;-72
2021/04/27 06:15:29;;;;;;;27.77;16.40;;;;;;;5.35;55.23;100325.30;147476;1147;104639;-71
2021/04/27 06:18:32;;;;;;;25.10;14.73;;;;;;;5.38;55.17;100319.75;147212;1147;104581;-71
2021/04/27 06:21:35;;;;;;;27.60;15.63;;;;;;;5.36;54.88;100319.02;147206;1147;104482;-72
2021/04/27 06:24:38;;;;;;;24.98;14.78;;;;;;;5.34;55.07;100322.76;147325;1147;104592;-73
2021/04/27 06:27:42;;;;;;;23.27;12.90;;;;;;;5.39;55.24;100324.09;147719;1147;104566;-74
2021/04/27 06:30:45;;;;;;;23.00;13.48;;;;;;;5.43;54.80;100325.53;147632;1147;104932;-70
2021/04/27 06:33:49;;;;;;;21.48;8.03;;;;;;;5.45;54.26;100320.97;147541;1147;104509;-73
2021/04/27 06:36:52;;;;;;;15.55;9.68;;;;;;;5.46;54.29;100322.63;147299;1147;104620;-71
2021/04/27 06:39:55;;;;;;;15.70;10.20;;;;;;;5.49;54.48;100322.41;147255;1147;104618;-73
2021/04/27 06:42:59;;;;;;;19.35;10.55;;;;;;;5.50;54.01;100326.76;147249;1148;104682;-73
2021/04/27 06:46:02;;;;;;;16.30;9.35;;;;;;;5.56;53.75;100325.41;147262;1148;104637;-73
2021/04/27 06:49:05;;;;;;;15.55;9.00;;;;;;;5.61;54.47;100327.72;147309;1147;104451;-72
2021/04/27 06:52:09;;;;;;;18.07;9.77;;;;;;;5.66;54.36;100328.21;147439;1147;104854;-71
2021/04/27 06:55:14;;;;;;;12.20;7.55;;;;;;;5.76;54.21;100326.52;147286;1148;104554;-72
2021/04/27 06:58:17;;;;;;;12.55;7.78;;;;;;;5.80;53.35;100325.31;147323;1147;104588;-73
2021/04/27 07:01:20;;;;;;;10.87;5.83;;;;;;;5.85;52.69;100331.09;147224;1147;104545;-72
2021/04/27 07:04:23;;;;;;;7.63;4.87;;;;;;;5.89;52.39;100329.05;147511;1147;104480;-74
2021/04/27 07:07:26;;;;;;;8.70;4.30;;;;;;;5.92;52.28;100331.44;147768;1147;104567;-75
2021/04/27 07:10:30;;;;;;;6.50;4.17;;;;;;;5.99;52.07;100334.50;147777;1147;104565;-73
2021/04/27 07:13:33;;;;;;;5.67;3.97;;;;;;;6.00;51.97;100337.00;147793;1145;104485;-72
2021/04/27 07:16:36;;;;;;;3.37;2.20;;;;;;;6.00;50.94;100330.87;147719;1147;104658;-72
2021/04/27 07:19:39;;;;;;;3.37;2.20;;;;;;;6.04;51.30;100332.30;147784;1147;104569;-72
2021/04/27 07:22:43;;;;;;;4.40;2.55;;;;;;;6.13;51.28;100336.04;147759;1147;104909;-74
2021/04/27 07:25:46;;;;;;;3.98;2.12;;;;;;;6.21;51.26;100333.61;147794;1148;104572;-72
2021/04/27 07:28:49;;;;;;;5.28;2.65;;;;;;;6.25;49.50;100335.87;147596;1147;104553;-74
2021/04/27 07:31:53;;;;;;;3.50;2.22;;;;;;;6.25;47.66;100329.75;147763;1147;104739;-72
2021/04/27 07:34:56;;;;;;;4.13;2.37;;;;;;;6.21;46.27;100331.80;147769;1147;104572;-72
2021/04/27 07:38:01;;;;;;;14.05;7.72;;;;;;;6.15;49.68;100334.95;147845;1147;104493;-72
2021/04/27 07:41:05;;;;;;;6.00;3.50;;;;;;;6.21;49.44;100326.50;147713;1147;104492;-72
2021/04/27 07:44:08;;;;;;;4.75;3.10;;;;;;;6.32;49.63;100322.16;147730;1147;104495;-71
2021/04/27 07:47:11;;;;;;;4.65;3.05;;;;;;;6.38;49.62;100327.80;147724;1147;104615;-72
2021/04/27 07:50:15;;;;;;;4.30;2.87;;;;;;;6.52;49.40;100325.83;147814;1147;104572;-74
2021/04/27 07:53:18;;;;;;;5.70;3.35;;;;;;;6.62;49.76;100321.45;147741;1147;104486;-73
2021/04/27 07:56:22;;;;;;;6.25;3.67;;;;;;;6.70;49.06;100326.98;147723;1147;104483;-76
2021/04/27 07:59:25;;;;;;;5.63;3.07;;;;;;;6.73;49.50;100328.53;147754;1147;104988;-72
2021/04/27 08:02:29;;;;;;;5.80;3.25;;;;;;;6.82;50.25;100327.78;147735;1147;104538;-72
2021/04/27 08:05:32;;;;;;;4.83;2.58;;;;;;;6.91;48.30;100321.72;147693;1148;104578;-73
2021/04/27 08:08:35;;;;;;;4.70;2.92;;;;;;;7.01;48.78;100321.79;147768;1147;104575;-76
2021/04/27 08:11:40;;;;;;;6.97;3.65;;;;;;;7.08;49.67;100322.94;147722;1148;104562;-72
2021/04/27 08:14:43;;;;;;;4.72;2.90;;;;;;;7.18;48.52;100333.61;147755;1147;104566;-73
2021/04/27 08:17:46;;;;;;;6.07;3.13;;;;;;;7.15;47.35;100326.77;147738;1148;104531;-72
2021/04/27 08:20:51;;;;;;;2.85;1.90;;;;;;;7.09;46.96;100319.33;147795;1147;104471;-74
2021/04/27 08:23:55;;;;;;;1.92;1.30;;;;;;;7.10;47.01;100315.69;147769;1147;104501;-77
2021/04/27 08:26:58;;;;;;;1.92;1.30;;;;;;;7.14;46.84;100321.58;147774;1147;104459;-73
2021/04/27 08:30:01;;;;;;;4.08;2.70;;;;;;;7.09;46.28;100324.63;147749;1147;104474;-74
2021/04/27 08:33:05;;;;;;;4.00;2.80;;;;;;;7.01;46.97;100322.63;147643;1147;104739;-73
2021/04/27 08:36:08;;;;;;;2.75;2.02;;;;;;;6.96;46.72;100316.84;147305;1148;104477;-73
2021/04/27 08:39:12;;;;;;;5.87;3.47;;;;;;;6.95;47.47;100325.80;147541;1147;104398;-72
2021/04/27 08:42:16;;;;;;;3.07;1.77;;;;;;;7.01;45.99;100319.97;147306;1147;104560;-73
2021/04/27 08:45:19;;;;;;;2.02;1.35;;;;;;;7.19;47.56;100324.70;147245;1147;104564;-72
2021/04/27 08:48:23;;;;;;;2.20;1.50;;;;;;;7.33;46.59;100329.66;147349;1147;104973;-73
2021/04/27 08:51:26;;;;;;;3.75;2.30;;;;;;;7.33;45.32;100318.21;147769;1147;104575;-72
2021/04/27 08:54:29;;;;;;;3.25;1.72;;;;;;;7.28;47.08;100323.92;147845;1147;104615;-72
2021/04/27 08:57:33;;;;;;;1.90;1.32;;;;;;;7.39;46.34;100323.86;147695;1147;104864;-73
2021/04/27 09:00:38;;;;;;;3.05;1.42;;;;;;;7.58;45.69;100319.61;147787;1147;104535;-72
2021/04/27 09:03:46;;;;;;;3.27;1.80;;;;;;;7.77;45.74;100318.86;147869;1147;104623;-72
2021/04/27 09:07:04;;;;;;;2.27;1.40;;;;;;;7.88;45.34;100318.77;147838;1148;104577;-73
2021/04/27 09:10:15;;;;;;;2.00;1.40;;;;;;;7.96;45.56;100315.44;147762;1148;104412;-72
2021/04/27 09:13:18;;;;;;;;;;;;;;;8.14;45.55;100316.48;147793;1147;104456;-72
2021/04/27 09:16:27;;;;;;;2.50;1.50;;;;;;;8.24;42.45;100317.34;147754;1146;104569;-72
2021/04/27 09:19:34;;;;;;;2.35;1.42;;;;;;;8.31;45.38;100306.98;147728;1147;104483;-75
2021/04/27 09:22:39;;;;;;;2.02;1.47;;;;;;;8.36;43.05;100311.91;147772;1147;104576;-71
2021/04/27 09:25:46;;;;;;;1.72;1.10;;;;;;;8.25;40.61;100318.17;147772;1147;104572;-72
2021/04/27 09:28:50;;;;;;;1.65;1.00;;;;;;;7.99;41.40;100308.05;147740;1147;104575;-72
2021/04/27 09:31:53;;;;;;;2.58;1.90;;;;;;;8.00;43.72;100308.88;147756;1147;104484;-72
2021/04/27 09:34:57;;;;;;;2.35;1.00;;;;;;;8.06;43.42;100308.33;147750;1147;104745;-73
2021/04/27 09:38:16;;;;;;;1.40;1.30;;;;;;;8.16;43.40;100306.56;147813;1147;104895;-73
2021/04/27 09:41:25;;;;;;;1.98;1.40;;;;;;;8.22;43.87;100300.69;147806;1147;104480;-74
2021/04/27 09:44:31;;;;;;;2.25;1.20;;;;;;;8.29;43.27;100306.28;147789;1147;104562;-74
2021/04/27 09:47:38;;;;;;;2.05;1.50;;;;;;;8.45;44.18;100290.69;147709;1147;104621;-72
2021/04/27 09:50:42;;;;;;;4.50;2.17;;;;;;;8.70;44.10;100291.13;147786;1147;104575;-72
2021/04/27 09:53:48;;;;;;;6.65;3.45;;;;;;;8.93;43.56;100286.34;147787;1147;104569;-72
2021/04/27 09:56:54;;;;;;;3.05;2.00;;;;;;;9.01;42.42;100283.81;147715;1147;104574;-74
2021/04/27 10:00:26;;;;;;;2.93;1.83;;;;;;;9.13;43.30;100289.81;147458;1147;104569;-74
2021/04/27 10:03:29;;;;;;;2.20;1.32;;;;;;;9.33;43.48;100282.60;147731;1146;104489;-73
2021/04/27 10:06:32;;;;;;;2.20;1.37;;;;;;;9.35;40.51;100280.67;147531;1147;104691;-72
2021/04/27 10:09:36;;;;;;;2.15;1.12;;;;;;;9.16;41.14;100286.88;147748;1147;104495;-73
2021/04/27 10:12:40;;;;;;;1.77;1.10;;;;;;;9.08;42.31;100284.06;147492;1147;104847;-73
2021/04/27 10:15:45;;;;;;;1.62;1.20;;;;;;;9.06;41.63;100282.53;147789;1147;104467;-72
2021/04/27 10:18:49;;;;;;;3.20;1.32;;;;;;;9.04;41.14;100285.33;147750;1148;104479;-72
2021/04/27 10:21:52;;;;;;;3.15;1.80;;;;;;;8.97;42.22;100290.40;147542;1147;104623;-73
2021/04/27 10:24:56;;;;;;;3.08;1.80;;;;;;;8.89;42.29;100284.95;147769;1147;104493;-74
2021/04/27 10:28:01;;;;;;;11.28;4.22;;;;;;;8.90;42.08;100283.95;147791;1148;104481;-72
2021/04/27 10:31:16;;;;;;;5.20;1.93;;;;;;;8.95;41.83;100278.20;147707;1147;104450;-72
2021/04/27 10:34:19;;;;;;;3.47;1.65;;;;;;;9.06;41.69;100277.21;147794;1147;104490;-75
2021/04/27 10:37:23;;;;;;;2.87;1.43;;;;;;;9.16;41.73;100275.36;147694;1147;104518;-74
2021/04/27 10:40:51;;;;;;;1.67;1.37;;;;;;;9.25;41.93;100269.18;147762;1147;104484;-73
2021/04/27 10:43:57;;;;;;;2.47;1.50;;;;;;;9.37;41.27;100272.51;147744;1147;104563;-72
2021/04/27 10:47:17;;;;;;;1.70;1.17;;;;;;;9.49;41.52;100267.84;147780;1147;104598;-72
2021/04/27 10:50:31;;;;;;;2.47;1.12;;;;;;;9.64;41.61;100263.71;147679;1147;104484;-72
2021/04/27 10:53:36;;;;;;;1.67;1.07;;;;;;;9.92;41.25;100255.75;147789;1147;104620;-72
2021/04/27 10:56:43;;;;;;;1.20;1.00;;;;;;;10.09;39.95;100254.11;147826;1147;104506;-72
2021/04/27 10:59:57;;;;;;;1.35;1.00;;;;;;;10.14;40.84;100252.67;147777;1148;104476;-73
2021/04/27 11:03:15;;;;;;;2.35;1.20;;;;;;;10.38;40.23;100245.94;147523;1147;104564;-73
2021/04/27 11:06:19;;;;;;;1.90;1.30;;;;;;;10.34;40.64;100247.23;147750;1147;104483;-73
2021/04/27 11:09:22;;;;;;;4.57;3.33;;;;;;;10.48;40.19;100240.52;147552;1148;104615;-73
2021/04/27 11:12:35;;;;;;;4.72;2.52;;;;;;;10.56;40.21;100244.08;147770;1147;104564;-75
2021/04/27 11:15:39;;;;;;;1.42;1.20;;;;;;;10.72;40.00;100240.73;147734;1147;104471;-73
2021/04/27 11:18:47;;;;;;;1.32;1.12;;;;;;;10.93;40.55;100235.06;147756;1147;104479;-72
2021/04/27 11:21:52;;;;;;;1.27;1.00;;;;;;;11.26;40.07;100248.62;147781;1148;104575;-73
2021/04/27 11:24:55;;;;;;;2.02;1.20;;;;;;;11.52;40.18;100229.05;147708;1147;104591;-72
2021/04/27 11:27:58;;;;;;;5.08;2.10;;;;;;;11.72;38.94;100234.97;147742;1147;104568;-73
2021/04/27 11:31:15;;;;;;;2.40;1.60;;;;;;;11.47;36.33;100234.89;147780;1148;104553;-73
2021/04/27 11:34:19;;;;;;;2.98;1.62;;;;;;;11.39;37.40;100238.35;147731;1148;104477;-73
2021/04/27 11:37:24;;;;;;;2.60;1.70;;;;;;;11.43;39.37;100228.16;147787;1148;104614;-73
2021/04/27 11:40:31;;;;;;;9.48;4.62;;;;;;;11.65;37.50;100229.45;147804;1147;104903;-73
2021/04/27 11:43:35;;;;;;;4.53;2.08;;;;;;;11.57;37.13;100227.58;147869;1147;104566;-75
2021/04/27 11:46:57;;;;;;;2.70;1.50;;;;;;;11.52;39.02;100235.22;147837;1147;104889;-73
2021/04/27 11:50:03;;;;;;;1.92;1.32;;;;;;;11.40;35.60;100229.33;147817;1147;104509;-72
2021/04/27 11:53:07;;;;;;;2.55;1.52;;;;;;;11.24;38.70;100229.25;147761;1147;104505;-74
2021/04/27 11:56:11;;;;;;;3.05;1.62;;;;;;;11.29;37.22;100223.42;147738;1147;104563;-73
2021/04/27 11:59:18;;;;;;;3.02;2.30;;;;;;;11.15;38.13;100227.52;147843;1147;104559;-74
2021/04/27 12:02:21;;;;;;;9.00;5.55;;;;;;;10.86;38.33;100223.32;147788;1147;104481;-71
2021/04/27 12:05:25;;;;;;;5.60;3.00;;;;;;;10.66;37.98;100225.31;147678;1147;104473;-72
2021/04/27 12:08:31;;;;;;;3.67;2.15;;;;;;;10.21;37.41;100231.56;147675;1147;105007;-73
2021/04/27 12:11:35;;;;;;;4.67;3.27;;;;;;;10.04;37.97;100217.22;147655;1147;104596;-74
2021/04/27 12:14:48;;;;;;;3.30;2.57;;;;;;;9.86;37.97;100219.03;147831;1147;104535;-72
2021/04/27 12:17:51;;;;;;;5.65;3.62;;;;;;;9.85;38.02;100214.67;147399;1147;104902;-70
2021/04/27 12:20:54;;;;;;;29.48;17.35;;;;;;;9.96;38.34;100215.30;147723;1147;104569;-73
2021/04/27 12:24:19;;;;;;;5.92;4.08;;;;;;;10.19;38.03;100210.37;147726;1147;104560;-72
2021/04/27 12:27:23;;;;;;;5.83;3.50;;;;;;;10.45;36.54;100198.12;147768;1147;104601;-72
2021/04/27 12:30:27;;;;;;;2.87;1.97;;;;;;;10.55;38.29;100199.73;147811;1147;104504;-73
2021/04/27 12:33:30;;;;;;;3.98;2.47;;;;;;;10.70;37.90;100201.83;147735;1148;104478;-73
2021/04/27 12:36:35;;;;;;;4.63;2.67;;;;;;;10.94;38.11;100198.52;147397;1147;104898;-73
2021/04/27 12:39:38;;;;;;;2.47;2.02;;;;;;;11.11;37.94;100194.12;147656;1147;104489;-75
2021/04/27 12:42:46;;;;;;;2.58;1.90;;;;;;;11.28;37.17;100190.54;147455;1147;104608;-73
2021/04/27 12:45:52;;;;;;;5.20;2.70;;;;;;;11.26;37.61;100189.86;147517;1147;104566;-73
2021/04/27 12:48:55;;;;;;;6.70;4.03;;;;;;;11.32;37.47;100194.56;147768;1147;104892;-73
2021/04/27 12:52:00;;;;;;;3.05;2.00;;;;;;;11.09;33.37;100196.94;147764;1147;105044;-72
2021/04/27 12:55:07;;;;;;;14.63;10.20;;;;;;;11.02;36.83;100192.39;147342;1147;104575;-73
2021/04/27 12:58:12;;;;;;;5.08;2.67;;;;;;;11.19;36.64;100184.30;147288;1147;104524;-74
2021/04/27 13:01:20;;;;;;;5.25;2.83;;;;;;;11.29;34.31;100180.69;147775;1147;104473;-74
2021/04/27 13:04:23;;;;;;;2.77;1.87;;;;;;;11.16;34.78;100181.11;147714;1148;104430;-74
2021/04/27 13:07:29;;;;;;;3.20;1.62;;;;;;;11.08;34.76;100189.08;147531;1147;104569;-73
2021/04/27 13:10:37;;;;;;;3.00;2.30;;;;;;;10.97;36.09;100183.02;147316;1146;104457;-69
2021/04/27 13:13:41;;;;;;;4.12;3.30;;;;;;;11.00;35.91;100182.69;147462;1147;104532;-73
2021/04/27 13:16:44;;;;;;;3.13;2.00;;;;;;;11.07;35.94;100168.73;147756;1148;104595;-73
2021/04/27 13:19:47;;;;;;;4.93;2.27;;;;;;;11.14;35.80;100172.42;147632;1148;104460;-74
2021/04/27 13:22:54;;;;;;;2.70;1.92;;;;;;;11.16;35.31;100173.09;147637;1146;104447;-73
2021/04/27 13:26:04;;;;;;;3.58;2.10;;;;;;;11.14;36.01;100167.08;147737;1147;104566;-75
2021/04/27 13:29:08;;;;;;;3.22;2.17;;;;;;;11.16;36.04;100163.28;147780;1145;104598;-73
2021/04/27 13:32:16;;;;;;;2.45;1.77;;;;;;;11.20;36.07;100159.28;147795;1148;104462;-75
2021/04/27 13:35:22;;;;;;;5.17;2.87;;;;;;;11.23;36.55;100158.12;147763;1147;104562;-73
2021/04/27 13:38:27;;;;;;;6.33;3.00;;;;;;;11.20;36.58;100161.95;147331;1147;104469;-73
2021/04/27 13:41:37;;;;;;;5.08;2.72;;;;;;;11.32;35.81;100148.33;147755;1147;104848;-73
2021/04/27 13:44:40;;;;;;;3.37;2.50;;;;;;;11.36;36.00;100150.50;147744;1147;104519;-74
2021/04/27 13:47:43;;;;;;;4.23;2.90;;;;;;;11.35;36.13;100156.00;147771;1147;104572;-72
2021/04/27 13:50:48;;;;;;;4.17;2.60;;;;;;;11.27;35.91;100146.11;147721;1148;104467;-72
2021/04/27 13:53:51;;;;;;;3.83;2.90;;;;;;;11.22;35.45;100145.78;147744;1147;104534;-73
2021/04/27 13:56:54;;;;;;;5.37;3.40;;;;;;;11.16;35.39;100141.91;147840;1147;104559;-73
2021/04/27 13:59:58;;;;;;;2.90;2.50;;;;;;;11.10;35.58;100145.19;147795;1147;104741;-73
2021/04/27 14:03:07;;;;;;;6.13;4.10;;;;;;;10.94;35.73;100143.28;147610;1147;104468;-76
2021/04/27 14:06:10;;;;;;;7.07;3.93;;;;;;;10.78;34.78;100146.70;147364;1148;104464;-75